Otterbein, Indiana
Current Conditions -  °F | °C
As of 8:54 AM on Wednesday 26 Nov 2014 (Local Time) from KLAF Reporting Station
Overcast Overcast  
Wind Chill: 15°   Ceiling: 1400
Heat Index: 24°   Visibility: 10mi
Dew Point: 19°   Wind: 8mph
Humidity: 81%   Direction: 80°E
Pressure: 30.16"   Gusts: NA
Location:  40.49°N, 87.1°W
Report Text: KLAF 261354Z 08007KT 10SM OVC014 M04/M07 A3016 RMK AO2 SLP219 T10441072
Loading
Personal Weather Stations






























Interactive Weather Map New forecast layout! Learn more

10-Day Weather Forecast

Advertisements
Track Severe Weather on mobile